sensor_id;sensor_type;location;lat;lon;timestamp;P1;durP1;ratioP1;P2;durP2;ratioP2
7703;SDS011;3894;49.700;10.770;2023-07-20T00:01:59;6.78;;;2.30;;
7703;SDS011;3894;49.700;10.770;2023-07-20T00:04:24;9.23;;;2.78;;
7703;SDS011;3894;49.700;10.770;2023-07-20T00:06:50;5.35;;;1.90;;
7703;SDS011;3894;49.700;10.770;2023-07-20T00:09:16;7.13;;;2.55;;
7703;SDS011;3894;49.700;10.770;2023-07-20T00:11:47;5.85;;;2.33;;
7703;SDS011;3894;49.700;10.770;2023-07-20T00:14:15;7.45;;;2.75;;
7703;SDS011;3894;49.700;10.770;2023-07-20T00:16:41;6.93;;;2.42;;
7703;SDS011;3894;49.700;10.770;2023-07-20T00:19:06;9.48;;;2.38;;
7703;SDS011;3894;49.700;10.770;2023-07-20T00:21:33;7.43;;;2.72;;
7703;SDS011;3894;49.700;10.770;2023-07-20T00:23:59;5.43;;;2.25;;
7703;SDS011;3894;49.700;10.770;2023-07-20T00:26:24;7.47;;;2.42;;
7703;SDS011;3894;49.700;10.770;2023-07-20T00:28:50;7.03;;;2.25;;
7703;SDS011;3894;49.700;10.770;2023-07-20T00:31:16;5.05;;;2.20;;
7703;SDS011;3894;49.700;10.770;2023-07-20T00:33:42;7.75;;;2.70;;
7703;SDS011;3894;49.700;10.770;2023-07-20T00:36:08;5.57;;;2.72;;
7703;SDS011;3894;49.700;10.770;2023-07-20T00:38:33;5.50;;;2.55;;
7703;SDS011;3894;49.700;10.770;2023-07-20T00:40:59;6.80;;;2.58;;
7703;SDS011;3894;49.700;10.770;2023-07-20T00:43:26;6.43;;;3.35;;
7703;SDS011;3894;49.700;10.770;2023-07-20T00:45:51;5.55;;;2.67;;
7703;SDS011;3894;49.700;10.770;2023-07-20T00:48:17;5.65;;;2.20;;
7703;SDS011;3894;49.700;10.770;2023-07-20T00:50:43;7.03;;;2.60;;
7703;SDS011;3894;49.700;10.770;2023-07-20T00:53:10;5.72;;;2.13;;
7703;SDS011;3894;49.700;10.770;2023-07-20T00:55:35;5.82;;;2.33;;
7703;SDS011;3894;49.700;10.770;2023-07-20T00:58:01;5.00;;;2.15;;
7703;SDS011;3894;49.700;10.770;2023-07-20T01:00:27;5.97;;;2.28;;
7703;SDS011;3894;49.700;10.770;2023-07-20T01:02:52;5.13;;;2.00;;
7703;SDS011;3894;49.700;10.770;2023-07-20T01:05:18;5.63;;;1.92;;
7703;SDS011;3894;49.700;10.770;2023-07-20T01:10:17;5.22;;;2.13;;
7703;SDS011;3894;49.700;10.770;2023-07-20T01:12:51;6.00;;;1.95;;
7703;SDS011;3894;49.700;10.770;2023-07-20T01:15:17;4.88;;;1.60;;
7703;SDS011;3894;49.700;10.770;2023-07-20T01:17:43;8.85;;;2.40;;
7703;SDS011;3894;49.700;10.770;2023-07-20T01:20:10;6.65;;;2.58;;
7703;SDS011;3894;49.700;10.770;2023-07-20T01:33:16;7.68;;;2.20;;
7703;SDS011;3894;49.700;10.770;2023-07-20T01:35:44;6.13;;;2.40;;
7703;SDS011;3894;49.700;10.770;2023-07-20T01:40:38;5.65;;;2.47;;
7703;SDS011;3894;49.700;10.770;2023-07-20T01:43:04;6.93;;;2.60;;
7703;SDS011;3894;49.700;10.770;2023-07-20T01:45:30;7.32;;;2.72;;
7703;SDS011;3894;49.700;10.770;2023-07-20T01:47:55;6.72;;;2.65;;
7703;SDS011;3894;49.700;10.770;2023-07-20T01:50:21;6.28;;;2.10;;
7703;SDS011;3894;49.700;10.770;2023-07-20T01:52:47;6.97;;;3.00;;
7703;SDS011;3894;49.700;10.770;2023-07-20T01:55:13;6.88;;;2.58;;
7703;SDS011;3894;49.700;10.770;2023-07-20T01:57:39;8.27;;;2.35;;
7703;SDS011;3894;49.700;10.770;2023-07-20T02:00:05;5.78;;;2.60;;
7703;SDS011;3894;49.700;10.770;2023-07-20T02:02:33;9.27;;;2.45;;
7703;SDS011;3894;49.700;10.770;2023-07-20T02:04:59;6.30;;;2.10;;
7703;SDS011;3894;49.700;10.770;2023-07-20T02:07:24;9.13;;;2.65;;
7703;SDS011;3894;49.700;10.770;2023-07-20T02:09:50;5.45;;;2.20;;
7703;SDS011;3894;49.700;10.770;2023-07-20T02:12:16;5.95;;;2.15;;
7703;SDS011;3894;49.700;10.770;2023-07-20T02:14:42;7.38;;;2.88;;
7703;SDS011;3894;49.700;10.770;2023-07-20T02:17:07;6.22;;;2.20;;
7703;SDS011;3894;49.700;10.770;2023-07-20T02:19:35;6.30;;;2.58;;
7703;SDS011;3894;49.700;10.770;2023-07-20T02:22:02;7.00;;;2.28;;
7703;SDS011;3894;49.700;10.770;2023-07-20T02:24:27;5.22;;;2.42;;
7703;SDS011;3894;49.700;10.770;2023-07-20T02:26:53;5.55;;;2.22;;
7703;SDS011;3894;49.700;10.770;2023-07-20T02:29:18;5.28;;;2.15;;
7703;SDS011;3894;49.700;10.770;2023-07-20T02:31:45;6.95;;;2.00;;
7703;SDS011;3894;49.700;10.770;2023-07-20T02:34:10;5.22;;;1.90;;
7703;SDS011;3894;49.700;10.770;2023-07-20T02:36:36;5.97;;;2.58;;
7703;SDS011;3894;49.700;10.770;2023-07-20T02:39:02;6.97;;;2.75;;
7703;SDS011;3894;49.700;10.770;2023-07-20T02:41:29;5.88;;;2.50;;
7703;SDS011;3894;49.700;10.770;2023-07-20T02:43:55;6.43;;;2.45;;
7703;SDS011;3894;49.700;10.770;2023-07-20T02:46:21;7.32;;;2.20;;
7703;SDS011;3894;49.700;10.770;2023-07-20T02:48:47;7.05;;;2.28;;
7703;SDS011;3894;49.700;10.770;2023-07-20T02:51:12;6.15;;;2.20;;
7703;SDS011;3894;49.700;10.770;2023-07-20T02:53:38;7.80;;;2.50;;
7703;SDS011;3894;49.700;10.770;2023-07-20T02:56:04;6.88;;;2.55;;
7703;SDS011;3894;49.700;10.770;2023-07-20T02:58:29;7.15;;;2.92;;
7703;SDS011;3894;49.700;10.770;2023-07-20T03:00:55;6.28;;;2.80;;
7703;SDS011;3894;49.700;10.770;2023-07-20T03:03:20;7.07;;;2.63;;
7703;SDS011;3894;49.700;10.770;2023-07-20T03:05:46;7.90;;;2.60;;
7703;SDS011;3894;49.700;10.770;2023-07-20T03:08:11;8.00;;;2.88;;
7703;SDS011;3894;49.700;10.770;2023-07-20T03:10:40;6.55;;;2.92;;
7703;SDS011;3894;49.700;10.770;2023-07-20T03:13:07;6.22;;;3.00;;
7703;SDS011;3894;49.700;10.770;2023-07-20T03:15:32;7.13;;;2.63;;
7703;SDS011;3894;49.700;10.770;2023-07-20T03:17:59;5.68;;;2.53;;
7703;SDS011;3894;49.700;10.770;2023-07-20T03:20:24;7.03;;;2.53;;
7703;SDS011;3894;49.700;10.770;2023-07-20T03:22:50;5.90;;;2.70;;
7703;SDS011;3894;49.700;10.770;2023-07-20T03:25:16;4.65;;;2.10;;
7703;SDS011;3894;49.700;10.770;2023-07-20T03:27:42;6.03;;;2.67;;
7703;SDS011;3894;49.700;10.770;2023-07-20T03:30:08;7.13;;;2.90;;
7703;SDS011;3894;49.700;10.770;2023-07-20T03:32:34;8.98;;;2.95;;
7703;SDS011;3894;49.700;10.770;2023-07-20T03:35:00;6.32;;;2.40;;
7703;SDS011;3894;49.700;10.770;2023-07-20T03:37:26;6.38;;;2.75;;
7703;SDS011;3894;49.700;10.770;2023-07-20T03:39:52;10.40;;;2.70;;
7703;SDS011;3894;49.700;10.770;2023-07-20T03:42:18;7.63;;;2.70;;
7703;SDS011;3894;49.700;10.770;2023-07-20T03:44:43;7.28;;;2.83;;
7703;SDS011;3894;49.700;10.770;2023-07-20T03:47:09;6.55;;;2.80;;
7703;SDS011;3894;49.700;10.770;2023-07-20T03:49:35;6.97;;;2.85;;
7703;SDS011;3894;49.700;10.770;2023-07-20T03:52:00;6.00;;;2.38;;
7703;SDS011;3894;49.700;10.770;2023-07-20T03:54:28;7.60;;;2.65;;
7703;SDS011;3894;49.700;10.770;2023-07-20T03:56:53;7.55;;;2.83;;
7703;SDS011;3894;49.700;10.770;2023-07-20T03:59:19;6.45;;;2.67;;
7703;SDS011;3894;49.700;10.770;2023-07-20T04:01:45;5.93;;;2.95;;
7703;SDS011;3894;49.700;10.770;2023-07-20T04:04:11;7.00;;;2.90;;
7703;SDS011;3894;49.700;10.770;2023-07-20T04:06:37;6.82;;;2.63;;
7703;SDS011;3894;49.700;10.770;2023-07-20T04:09:03;7.05;;;2.97;;
7703;SDS011;3894;49.700;10.770;2023-07-20T04:11:30;8.15;;;2.53;;
7703;SDS011;3894;49.700;10.770;2023-07-20T04:13:55;7.32;;;2.97;;
7703;SDS011;3894;49.700;10.770;2023-07-20T04:16:21;6.28;;;2.95;;
7703;SDS011;3894;49.700;10.770;2023-07-20T04:18:47;7.13;;;2.90;;
7703;SDS011;3894;49.700;10.770;2023-07-20T04:21:12;6.68;;;2.13;;
7703;SDS011;3894;49.700;10.770;2023-07-20T04:23:38;6.97;;;2.47;;
7703;SDS011;3894;49.700;10.770;2023-07-20T04:26:03;6.50;;;3.15;;
7703;SDS011;3894;49.700;10.770;2023-07-20T04:28:29;8.05;;;2.47;;
7703;SDS011;3894;49.700;10.770;2023-07-20T04:30:58;7.22;;;2.97;;
7703;SDS011;3894;49.700;10.770;2023-07-20T04:33:38;6.88;;;3.03;;
7703;SDS011;3894;49.700;10.770;2023-07-20T04:36:04;5.95;;;3.05;;
7703;SDS011;3894;49.700;10.770;2023-07-20T04:38:30;7.82;;;2.88;;
7703;SDS011;3894;49.700;10.770;2023-07-20T04:40:55;9.85;;;3.10;;
7703;SDS011;3894;49.700;10.770;2023-07-20T04:43:21;6.63;;;3.10;;
7703;SDS011;3894;49.700;10.770;2023-07-20T04:45:47;5.80;;;3.10;;
7703;SDS011;3894;49.700;10.770;2023-07-20T04:48:13;6.80;;;3.42;;
7703;SDS011;3894;49.700;10.770;2023-07-20T04:50:40;9.02;;;3.58;;
7703;SDS011;3894;49.700;10.770;2023-07-20T04:53:08;8.18;;;3.63;;
7703;SDS011;3894;49.700;10.770;2023-07-20T04:55:35;7.60;;;4.07;;
7703;SDS011;3894;49.700;10.770;2023-07-20T04:58:02;10.60;;;3.60;;
7703;SDS011;3894;49.700;10.770;2023-07-20T05:00:28;7.80;;;3.40;;
7703;SDS011;3894;49.700;10.770;2023-07-20T05:02:54;7.97;;;3.50;;
7703;SDS011;3894;49.700;10.770;2023-07-20T05:05:20;7.80;;;3.30;;
7703;SDS011;3894;49.700;10.770;2023-07-20T05:10:22;7.45;;;3.20;;
7703;SDS011;3894;49.700;10.770;2023-07-20T05:12:50;7.93;;;3.42;;
7703;SDS011;3894;49.700;10.770;2023-07-20T05:15:16;10.38;;;3.72;;
7703;SDS011;3894;49.700;10.770;2023-07-20T05:17:42;6.93;;;2.65;;
7703;SDS011;3894;49.700;10.770;2023-07-20T05:20:07;7.07;;;3.15;;
7703;SDS011;3894;49.700;10.770;2023-07-20T05:22:37;5.55;;;2.70;;
7703;SDS011;3894;49.700;10.770;2023-07-20T05:25:07;6.88;;;3.20;;
7703;SDS011;3894;49.700;10.770;2023-07-20T05:27:33;6.90;;;3.30;;
7703;SDS011;3894;49.700;10.770;2023-07-20T05:30:00;7.15;;;3.08;;
7703;SDS011;3894;49.700;10.770;2023-07-20T05:32:25;8.82;;;3.00;;
7703;SDS011;3894;49.700;10.770;2023-07-20T05:34:52;8.30;;;2.70;;
7703;SDS011;3894;49.700;10.770;2023-07-20T05:37:20;6.32;;;2.70;;
7703;SDS011;3894;49.700;10.770;2023-07-20T05:39:46;6.82;;;2.78;;
7703;SDS011;3894;49.700;10.770;2023-07-20T05:42:14;7.60;;;2.90;;
7703;SDS011;3894;49.700;10.770;2023-07-20T05:44:40;7.28;;;2.95;;
7703;SDS011;3894;49.700;10.770;2023-07-20T05:47:06;7.28;;;3.17;;
7703;SDS011;3894;49.700;10.770;2023-07-20T05:49:32;7.57;;;3.55;;
7703;SDS011;3894;49.700;10.770;2023-07-20T05:51:57;8.27;;;2.83;;
7703;SDS011;3894;49.700;10.770;2023-07-20T05:54:23;7.90;;;2.70;;
7703;SDS011;3894;49.700;10.770;2023-07-20T05:56:53;6.43;;;2.58;;
7703;SDS011;3894;49.700;10.770;2023-07-20T05:59:19;5.40;;;2.05;;
7703;SDS011;3894;49.700;10.770;2023-07-20T06:01:45;6.43;;;2.75;;
7703;SDS011;3894;49.700;10.770;2023-07-20T06:04:16;8.70;;;2.55;;
7703;SDS011;3894;49.700;10.770;2023-07-20T06:06:42;6.00;;;2.45;;
7703;SDS011;3894;49.700;10.770;2023-07-20T06:09:16;5.60;;;2.40;;
7703;SDS011;3894;49.700;10.770;2023-07-20T06:11:42;5.93;;;2.60;;
7703;SDS011;3894;49.700;10.770;2023-07-20T06:14:08;5.60;;;1.95;;
7703;SDS011;3894;49.700;10.770;2023-07-20T06:16:33;5.28;;;2.30;;
7703;SDS011;3894;49.700;10.770;2023-07-20T06:19:02;5.50;;;2.08;;
7703;SDS011;3894;49.700;10.770;2023-07-20T06:21:28;5.82;;;2.25;;
7703;SDS011;3894;49.700;10.770;2023-07-20T06:23:53;6.47;;;2.17;;
7703;SDS011;3894;49.700;10.770;2023-07-20T06:26:19;5.75;;;1.67;;
7703;SDS011;3894;49.700;10.770;2023-07-20T06:28:45;7.75;;;2.28;;
7703;SDS011;3894;49.700;10.770;2023-07-20T06:31:11;5.43;;;1.70;;
7703;SDS011;3894;49.700;10.770;2023-07-20T06:33:39;6.97;;;2.08;;
7703;SDS011;3894;49.700;10.770;2023-07-20T06:36:04;4.93;;;1.73;;
7703;SDS011;3894;49.700;10.770;2023-07-20T06:38:30;6.30;;;1.80;;
7703;SDS011;3894;49.700;10.770;2023-07-20T06:40:56;4.75;;;1.77;;
7703;SDS011;3894;49.700;10.770;2023-07-20T06:43:24;4.80;;;1.40;;
7703;SDS011;3894;49.700;10.770;2023-07-20T06:45:52;5.05;;;1.10;;
7703;SDS011;3894;49.700;10.770;2023-07-20T06:51:37;4.50;;;1.33;;
7703;SDS011;3894;49.700;10.770;2023-07-20T06:54:03;6.03;;;1.60;;
7703;SDS011;3894;49.700;10.770;2023-07-20T06:56:29;4.18;;;1.10;;
7703;SDS011;3894;49.700;10.770;2023-07-20T06:58:55;6.00;;;0.90;;
7703;SDS011;3894;49.700;10.770;2023-07-20T07:01:20;4.68;;;1.58;;
7703;SDS011;3894;49.700;10.770;2023-07-20T07:03:47;4.60;;;1.35;;
7703;SDS011;3894;49.700;10.770;2023-07-20T07:06:12;4.38;;;1.13;;
7703;SDS011;3894;49.700;10.770;2023-07-20T07:08:38;4.78;;;1.20;;
7703;SDS011;3894;49.700;10.770;2023-07-20T07:11:03;5.95;;;1.30;;
7703;SDS011;3894;49.700;10.770;2023-07-20T07:13:30;4.93;;;1.35;;
7703;SDS011;3894;49.700;10.770;2023-07-20T07:15:55;5.78;;;1.35;;
7703;SDS011;3894;49.700;10.770;2023-07-20T07:18:22;4.80;;;1.30;;
7703;SDS011;3894;49.700;10.770;2023-07-20T07:20:50;4.40;;;1.00;;
7703;SDS011;3894;49.700;10.770;2023-07-20T07:23:17;4.47;;;1.10;;
7703;SDS011;3894;49.700;10.770;2023-07-20T07:25:43;4.32;;;1.10;;
7703;SDS011;3894;49.700;10.770;2023-07-20T07:28:08;5.20;;;1.33;;
7703;SDS011;3894;49.700;10.770;2023-07-20T07:30:34;3.67;;;1.00;;
7703;SDS011;3894;49.700;10.770;2023-07-20T07:33:00;6.47;;;1.30;;
7703;SDS011;3894;49.700;10.770;2023-07-20T07:35:25;5.35;;;0.95;;
7703;SDS011;3894;49.700;10.770;2023-07-20T07:37:51;6.15;;;1.20;;
7703;SDS011;3894;49.700;10.770;2023-07-20T07:40:16;4.07;;;1.10;;
7703;SDS011;3894;49.700;10.770;2023-07-20T07:42:43;4.63;;;1.20;;
7703;SDS011;3894;49.700;10.770;2023-07-20T07:45:12;5.40;;;1.35;;
7703;SDS011;3894;49.700;10.770;2023-07-20T07:47:38;4.18;;;1.02;;
7703;SDS011;3894;49.700;10.770;2023-07-20T07:50:04;4.03;;;1.23;;
7703;SDS011;3894;49.700;10.770;2023-07-20T07:52:30;5.68;;;1.40;;
7703;SDS011;3894;49.700;10.770;2023-07-20T07:54:56;4.00;;;0.82;;
7703;SDS011;3894;49.700;10.770;2023-07-20T07:57:22;9.02;;;1.40;;
7703;SDS011;3894;49.700;10.770;2023-07-20T07:59:47;3.63;;;0.82;;
7703;SDS011;3894;49.700;10.770;2023-07-20T08:02:13;5.20;;;1.00;;
7703;SDS011;3894;49.700;10.770;2023-07-20T08:04:39;3.58;;;0.93;;
7703;SDS011;3894;49.700;10.770;2023-07-20T08:07:05;4.10;;;0.90;;
7703;SDS011;3894;49.700;10.770;2023-07-20T08:09:30;5.28;;;0.80;;
7703;SDS011;3894;49.700;10.770;2023-07-20T08:11:56;5.45;;;1.10;;
7703;SDS011;3894;49.700;10.770;2023-07-20T08:14:21;4.07;;;1.13;;
7703;SDS011;3894;49.700;10.770;2023-07-20T08:16:47;5.18;;;1.08;;
7703;SDS011;3894;49.700;10.770;2023-07-20T08:19:12;3.88;;;0.88;;
7703;SDS011;3894;49.700;10.770;2023-07-20T08:21:38;5.03;;;0.73;;
7703;SDS011;3894;49.700;10.770;2023-07-20T08:24:04;5.45;;;1.35;;
7703;SDS011;3894;49.700;10.770;2023-07-20T08:26:30;4.10;;;1.10;;
7703;SDS011;3894;49.700;10.770;2023-07-20T08:28:56;4.63;;;0.80;;
7703;SDS011;3894;49.700;10.770;2023-07-20T08:31:21;4.95;;;1.00;;
7703;SDS011;3894;49.700;10.770;2023-07-20T08:33:47;3.45;;;0.90;;
7703;SDS011;3894;49.700;10.770;2023-07-20T08:36:13;4.28;;;0.70;;
7703;SDS011;3894;49.700;10.770;2023-07-20T08:38:39;4.45;;;1.02;;
7703;SDS011;3894;49.700;10.770;2023-07-20T08:41:04;3.80;;;0.95;;
7703;SDS011;3894;49.700;10.770;2023-07-20T08:43:30;3.50;;;0.63;;
7703;SDS011;3894;49.700;10.770;2023-07-20T08:45:58;3.25;;;0.82;;
7703;SDS011;3894;49.700;10.770;2023-07-20T08:48:24;3.45;;;0.88;;
7703;SDS011;3894;49.700;10.770;2023-07-20T08:50:51;4.43;;;0.90;;
7703;SDS011;3894;49.700;10.770;2023-07-20T08:53:21;4.80;;;0.82;;
7703;SDS011;3894;49.700;10.770;2023-07-20T08:55:48;4.45;;;0.88;;
7703;SDS011;3894;49.700;10.770;2023-07-20T08:58:16;3.63;;;0.73;;
7703;SDS011;3894;49.700;10.770;2023-07-20T09:00:43;4.97;;;1.13;;
7703;SDS011;3894;49.700;10.770;2023-07-20T09:03:09;4.28;;;0.90;;
7703;SDS011;3894;49.700;10.770;2023-07-20T09:05:36;6.68;;;0.65;;
7703;SDS011;3894;49.700;10.770;2023-07-20T09:08:01;4.32;;;0.90;;
7703;SDS011;3894;49.700;10.770;2023-07-20T09:10:30;6.05;;;1.25;;
7703;SDS011;3894;49.700;10.770;2023-07-20T09:12:56;5.20;;;0.93;;
7703;SDS011;3894;49.700;10.770;2023-07-20T09:15:22;4.78;;;0.73;;
7703;SDS011;3894;49.700;10.770;2023-07-20T09:17:48;3.60;;;0.93;;
7703;SDS011;3894;49.700;10.770;2023-07-20T09:20:15;6.45;;;0.80;;
7703;SDS011;3894;49.700;10.770;2023-07-20T09:22:42;4.85;;;0.93;;
7703;SDS011;3894;49.700;10.770;2023-07-20T09:27:39;4.97;;;1.08;;
7703;SDS011;3894;49.700;10.770;2023-07-20T09:30:06;4.95;;;0.55;;
7703;SDS011;3894;49.700;10.770;2023-07-20T09:32:40;5.10;;;1.27;;
7703;SDS011;3894;49.700;10.770;2023-07-20T09:35:12;3.95;;;1.05;;
7703;SDS011;3894;49.700;10.770;2023-07-20T09:37:52;5.28;;;0.90;;
7703;SDS011;3894;49.700;10.770;2023-07-20T09:40:25;3.65;;;0.57;;
7703;SDS011;3894;49.700;10.770;2023-07-20T09:45:18;4.63;;;0.63;;
7703;SDS011;3894;49.700;10.770;2023-07-20T09:47:45;3.67;;;0.70;;
7703;SDS011;3894;49.700;10.770;2023-07-20T09:50:11;3.90;;;0.85;;
7703;SDS011;3894;49.700;10.770;2023-07-20T09:52:40;3.92;;;0.40;;
7703;SDS011;3894;49.700;10.770;2023-07-20T09:55:07;3.75;;;0.60;;
7703;SDS011;3894;49.700;10.770;2023-07-20T09:57:34;3.72;;;0.57;;
7703;SDS011;3894;49.700;10.770;2023-07-20T10:00:01;3.88;;;0.68;;
7703;SDS011;3894;49.700;10.770;2023-07-20T10:02:34;3.25;;;0.52;;
7703;SDS011;3894;49.700;10.770;2023-07-20T10:05:05;3.20;;;0.50;;
7703;SDS011;3894;49.700;10.770;2023-07-20T10:07:35;5.47;;;1.23;;
7703;SDS011;3894;49.700;10.770;2023-07-20T10:10:05;4.35;;;0.82;;
7703;SDS011;3894;49.700;10.770;2023-07-20T10:12:35;4.68;;;0.75;;
7703;SDS011;3894;49.700;10.770;2023-07-20T10:17:40;3.20;;;0.90;;
7703;SDS011;3894;49.700;10.770;2023-07-20T10:20:27;4.43;;;0.90;;
7703;SDS011;3894;49.700;10.770;2023-07-20T10:22:54;2.55;;;0.52;;
7703;SDS011;3894;49.700;10.770;2023-07-20T10:25:22;3.17;;;0.68;;
7703;SDS011;3894;49.700;10.770;2023-07-20T10:27:48;4.88;;;0.63;;
7703;SDS011;3894;49.700;10.770;2023-07-20T10:30:14;2.97;;;0.32;;
7703;SDS011;3894;49.700;10.770;2023-07-20T10:32:45;3.80;;;0.65;;
7703;SDS011;3894;49.700;10.770;2023-07-20T10:35:15;2.67;;;0.50;;
7703;SDS011;3894;49.700;10.770;2023-07-20T10:37:51;3.17;;;0.65;;
7703;SDS011;3894;49.700;10.770;2023-07-20T10:43:05;4.22;;;0.60;;
7703;SDS011;3894;49.700;10.770;2023-07-20T10:48:14;4.22;;;0.90;;
7703;SDS011;3894;49.700;10.770;2023-07-20T10:50:44;2.92;;;0.63;;
7703;SDS011;3894;49.700;10.770;2023-07-20T10:53:11;3.85;;;0.98;;
7703;SDS011;3894;49.700;10.770;2023-07-20T10:55:37;4.10;;;0.70;;
7703;SDS011;3894;49.700;10.770;2023-07-20T10:58:14;4.55;;;0.98;;
7703;SDS011;3894;49.700;10.770;2023-07-20T11:00:54;4.80;;;0.50;;
7703;SDS011;3894;49.700;10.770;2023-07-20T11:03:38;3.50;;;0.77;;
7703;SDS011;3894;49.700;10.770;2023-07-20T11:08:54;7.35;;;0.75;;
7703;SDS011;3894;49.700;10.770;2023-07-20T11:11:28;4.47;;;0.70;;
7703;SDS011;3894;49.700;10.770;2023-07-20T11:13:58;3.13;;;0.60;;
7703;SDS011;3894;49.700;10.770;2023-07-20T11:19:05;4.05;;;0.50;;
7703;SDS011;3894;49.700;10.770;2023-07-20T11:21:35;2.70;;;0.45;;
7703;SDS011;3894;49.700;10.770;2023-07-20T11:24:06;3.83;;;0.52;;
7703;SDS011;3894;49.700;10.770;2023-07-20T11:26:45;3.03;;;0.50;;
7703;SDS011;3894;49.700;10.770;2023-07-20T11:29:21;5.10;;;0.50;;
7703;SDS011;3894;49.700;10.770;2023-07-20T11:31:48;4.35;;;0.90;;
7703;SDS011;3894;49.700;10.770;2023-07-20T11:34:15;4.55;;;0.90;;
7703;SDS011;3894;49.700;10.770;2023-07-20T11:36:46;3.95;;;1.05;;
7703;SDS011;3894;49.700;10.770;2023-07-20T11:39:16;6.05;;;0.73;;
7703;SDS011;3894;49.700;10.770;2023-07-20T11:41:47;3.28;;;0.70;;
7703;SDS011;3894;49.700;10.770;2023-07-20T11:44:15;4.57;;;0.60;;
7703;SDS011;3894;49.700;10.770;2023-07-20T11:46:42;2.97;;;0.52;;
7703;SDS011;3894;49.700;10.770;2023-07-20T11:49:09;4.20;;;0.80;;
7703;SDS011;3894;49.700;10.770;2023-07-20T11:51:35;4.00;;;0.65;;
7703;SDS011;3894;49.700;10.770;2023-07-20T11:54:03;2.50;;;0.50;;
7703;SDS011;3894;49.700;10.770;2023-07-20T11:56:30;4.47;;;0.57;;
7703;SDS011;3894;49.700;10.770;2023-07-20T11:58:56;4.40;;;0.50;;
7703;SDS011;3894;49.700;10.770;2023-07-20T12:01:25;5.28;;;0.50;;
7703;SDS011;3894;49.700;10.770;2023-07-20T12:03:54;4.18;;;0.63;;
7703;SDS011;3894;49.700;10.770;2023-07-20T12:06:25;4.18;;;0.73;;
7703;SDS011;3894;49.700;10.770;2023-07-20T12:08:58;5.00;;;0.82;;
7703;SDS011;3894;49.700;10.770;2023-07-20T12:11:38;2.65;;;0.43;;
7703;SDS011;3894;49.700;10.770;2023-07-20T12:16:33;4.07;;;0.50;;
7703;SDS011;3894;49.700;10.770;2023-07-20T12:19:07;3.60;;;0.60;;
7703;SDS011;3894;49.700;10.770;2023-07-20T12:21:36;2.95;;;0.68;;
7703;SDS011;3894;49.700;10.770;2023-07-20T12:24:03;3.65;;;0.63;;
7703;SDS011;3894;49.700;10.770;2023-07-20T12:26:30;3.00;;;0.47;;
7703;SDS011;3894;49.700;10.770;2023-07-20T12:28:56;3.42;;;0.77;;
7703;SDS011;3894;49.700;10.770;2023-07-20T12:31:23;3.22;;;0.60;;
7703;SDS011;3894;49.700;10.770;2023-07-20T12:33:49;3.05;;;0.68;;
7703;SDS011;3894;49.700;10.770;2023-07-20T12:36:16;2.78;;;0.50;;
7703;SDS011;3894;49.700;10.770;2023-07-20T12:38:42;2.63;;;0.60;;
7703;SDS011;3894;49.700;10.770;2023-07-20T12:41:09;2.65;;;0.52;;
7703;SDS011;3894;49.700;10.770;2023-07-20T12:43:37;3.83;;;0.88;;
7703;SDS011;3894;49.700;10.770;2023-07-20T12:46:03;4.40;;;0.85;;
7703;SDS011;3894;49.700;10.770;2023-07-20T12:48:28;3.65;;;0.70;;
7703;SDS011;3894;49.700;10.770;2023-07-20T12:50:54;4.32;;;0.73;;
7703;SDS011;3894;49.700;10.770;2023-07-20T12:53:20;2.92;;;0.57;;
7703;SDS011;3894;49.700;10.770;2023-07-20T12:55:46;4.47;;;0.80;;
7703;SDS011;3894;49.700;10.770;2023-07-20T12:58:11;3.88;;;0.95;;
7703;SDS011;3894;49.700;10.770;2023-07-20T13:00:38;4.28;;;0.80;;
7703;SDS011;3894;49.700;10.770;2023-07-20T13:03:04;4.65;;;0.70;;
7703;SDS011;3894;49.700;10.770;2023-07-20T13:05:30;4.43;;;1.00;;
7703;SDS011;3894;49.700;10.770;2023-07-20T13:10:23;2.92;;;0.43;;
7703;SDS011;3894;49.700;10.770;2023-07-20T13:12:49;3.13;;;0.45;;
7703;SDS011;3894;49.700;10.770;2023-07-20T13:15:15;4.13;;;0.80;;
7703;SDS011;3894;49.700;10.770;2023-07-20T13:17:43;5.32;;;0.70;;
7703;SDS011;3894;49.700;10.770;2023-07-20T13:20:09;4.60;;;0.80;;
7703;SDS011;3894;49.700;10.770;2023-07-20T13:22:38;3.60;;;0.93;;
7703;SDS011;3894;49.700;10.770;2023-07-20T13:25:04;5.00;;;0.82;;
7703;SDS011;3894;49.700;10.770;2023-07-20T13:27:31;5.68;;;0.65;;
7703;SDS011;3894;49.700;10.770;2023-07-20T13:29:57;3.58;;;0.82;;
7703;SDS011;3894;49.700;10.770;2023-07-20T13:32:23;3.13;;;0.80;;
7703;SDS011;3894;49.700;10.770;2023-07-20T13:34:49;3.33;;;0.80;;
7703;SDS011;3894;49.700;10.770;2023-07-20T13:37:15;3.45;;;0.47;;
7703;SDS011;3894;49.700;10.770;2023-07-20T13:39:41;2.78;;;0.55;;
7703;SDS011;3894;49.700;10.770;2023-07-20T13:42:07;5.85;;;0.90;;
7703;SDS011;3894;49.700;10.770;2023-07-20T13:44:35;3.20;;;0.82;;
7703;SDS011;3894;49.700;10.770;2023-07-20T13:47:02;2.83;;;0.43;;
7703;SDS011;3894;49.700;10.770;2023-07-20T13:49:30;4.22;;;0.95;;
7703;SDS011;3894;49.700;10.770;2023-07-20T13:51:56;3.80;;;0.63;;
7703;SDS011;3894;49.700;10.770;2023-07-20T13:54:22;3.20;;;0.55;;
7703;SDS011;3894;49.700;10.770;2023-07-20T13:56:48;5.25;;;0.82;;
7703;SDS011;3894;49.700;10.770;2023-07-20T13:59:14;4.18;;;0.52;;
7703;SDS011;3894;49.700;10.770;2023-07-20T14:01:39;4.22;;;0.70;;
7703;SDS011;3894;49.700;10.770;2023-07-20T14:04:05;3.60;;;0.60;;
7703;SDS011;3894;49.700;10.770;2023-07-20T14:06:31;3.63;;;0.63;;
7703;SDS011;3894;49.700;10.770;2023-07-20T14:08:58;3.83;;;0.75;;
7703;SDS011;3894;49.700;10.770;2023-07-20T14:11:24;3.42;;;0.45;;
7703;SDS011;3894;49.700;10.770;2023-07-20T14:13:51;3.85;;;0.57;;
7703;SDS011;3894;49.700;10.770;2023-07-20T14:16:18;4.10;;;0.70;;
7703;SDS011;3894;49.700;10.770;2023-07-20T14:18:44;4.18;;;0.75;;
7703;SDS011;3894;49.700;10.770;2023-07-20T14:21:12;4.00;;;0.73;;
7703;SDS011;3894;49.700;10.770;2023-07-20T14:23:38;3.47;;;0.75;;
7703;SDS011;3894;49.700;10.770;2023-07-20T14:26:04;3.75;;;0.55;;
7703;SDS011;3894;49.700;10.770;2023-07-20T14:28:30;3.60;;;0.63;;
7703;SDS011;3894;49.700;10.770;2023-07-20T14:30:56;5.22;;;0.52;;
7703;SDS011;3894;49.700;10.770;2023-07-20T14:33:22;3.05;;;0.52;;
7703;SDS011;3894;49.700;10.770;2023-07-20T14:35:48;4.30;;;0.60;;
7703;SDS011;3894;49.700;10.770;2023-07-20T14:38:13;3.97;;;0.70;;
7703;SDS011;3894;49.700;10.770;2023-07-20T14:40:39;3.72;;;0.63;;
7703;SDS011;3894;49.700;10.770;2023-07-20T14:43:05;2.75;;;0.75;;
7703;SDS011;3894;49.700;10.770;2023-07-20T14:45:30;3.25;;;0.90;;
7703;SDS011;3894;49.700;10.770;2023-07-20T14:47:56;2.92;;;0.50;;
7703;SDS011;3894;49.700;10.770;2023-07-20T14:50:21;4.03;;;0.52;;
7703;SDS011;3894;49.700;10.770;2023-07-20T14:52:47;3.88;;;0.65;;
7703;SDS011;3894;49.700;10.770;2023-07-20T14:55:14;3.13;;;0.70;;
7703;SDS011;3894;49.700;10.770;2023-07-20T14:57:40;4.10;;;0.73;;
7703;SDS011;3894;49.700;10.770;2023-07-20T15:00:05;3.25;;;0.63;;
7703;SDS011;3894;49.700;10.770;2023-07-20T15:02:35;3.78;;;0.52;;
7703;SDS011;3894;49.700;10.770;2023-07-20T15:05:06;4.25;;;0.60;;
7703;SDS011;3894;49.700;10.770;2023-07-20T15:07:32;2.78;;;0.50;;
7703;SDS011;3894;49.700;10.770;2023-07-20T15:09:58;2.97;;;0.68;;
7703;SDS011;3894;49.700;10.770;2023-07-20T15:12:24;2.53;;;0.45;;
7703;SDS011;3894;49.700;10.770;2023-07-20T15:15:01;4.05;;;0.52;;
7703;SDS011;3894;49.700;10.770;2023-07-20T15:17:28;3.55;;;0.47;;
7703;SDS011;3894;49.700;10.770;2023-07-20T15:19:53;2.72;;;0.70;;
7703;SDS011;3894;49.700;10.770;2023-07-20T15:22:19;4.43;;;0.60;;
7703;SDS011;3894;49.700;10.770;2023-07-20T15:24:44;3.55;;;0.47;;
7703;SDS011;3894;49.700;10.770;2023-07-20T15:27:10;3.38;;;0.63;;
7703;SDS011;3894;49.700;10.770;2023-07-20T15:29:36;3.53;;;0.88;;
7703;SDS011;3894;49.700;10.770;2023-07-20T15:32:01;3.97;;;0.75;;
7703;SDS011;3894;49.700;10.770;2023-07-20T15:34:27;2.63;;;0.60;;
7703;SDS011;3894;49.700;10.770;2023-07-20T15:36:52;3.35;;;0.70;;
7703;SDS011;3894;49.700;10.770;2023-07-20T15:39:18;3.47;;;0.50;;
7703;SDS011;3894;49.700;10.770;2023-07-20T15:41:45;3.13;;;0.80;;
7703;SDS011;3894;49.700;10.770;2023-07-20T15:44:12;3.92;;;0.70;;